Time;durP1;ratioP1;P1;durP2;ratioP2;P2;SDS_P1;SDS_P2;PMS_P1;PMS_P2;Temp;Humidity;BMP_temperature;BMP_pressure;BME280_temperature;BME280_humidity;BME280_pressure;Samples;Min_cycle;Max_cycle;Signal;HPM_P1;HPM_P2
2021/11/02 00:01:00;;;;;;;5.40;2.35;;;6.80;99.90;;;;;;5037876;28;20041;-61
2021/11/02 00:03:25;;;;;;;3.90;2.10;;;6.80;99.90;;;;;;5039807;28;20029;-61
2021/11/02 00:05:51;;;;;;;16.27;2.55;;;6.80;99.90;;;;;;5039785;28;20041;-63
2021/11/02 00:08:17;;;;;;;5.53;3.08;;;6.80;99.90;;;;;;5040211;28;20032;-60
2021/11/02 00:10:42;;;;;;;8.75;3.22;;;6.80;99.90;;;;;;5038894;28;20453;-60
2021/11/02 00:13:09;;;;;;;7.47;2.50;;;6.80;99.90;;;;;;5037615;28;20071;-62
2021/11/02 00:15:37;;;;;;;4.68;2.53;;;6.80;99.90;;;;;;5041660;28;20057;-62
2021/11/02 00:18:05;;;;;;;6.57;2.65;;;6.80;99.90;;;;;;5038211;28;20116;-67
2021/11/02 00:20:32;;;;;;;4.78;2.40;;;6.80;99.90;;;;;;5041077;28;20033;-62
2021/11/02 00:22:59;;;;;;;6.75;2.33;;;6.80;99.90;;;;;;5040056;28;20060;-62
2021/11/02 00:25:28;;;;;;;8.90;2.70;;;6.80;99.90;;;;;;5039312;28;20532;-63
2021/11/02 00:27:54;;;;;;;3.63;2.00;;;6.80;99.90;;;;;;5039148;28;20088;-61
2021/11/02 00:30:22;;;;;;;6.57;2.65;;;6.80;99.90;;;;;;5039096;28;20043;-62
2021/11/02 00:32:50;;;;;;;6.40;2.67;;;6.80;99.90;;;;;;5020755;28;20516;-63
2021/11/02 00:35:17;;;;;;;7.75;2.30;;;6.80;99.90;;;;;;5040191;28;20033;-61
2021/11/02 00:37:43;;;;;;;5.65;1.90;;;6.80;99.90;;;;;;5038472;28;20053;-61
2021/11/02 00:40:12;;;;;;;7.82;2.92;;;6.70;99.90;;;;;;5040695;28;20033;-61
2021/11/02 00:42:50;;;;;;;8.50;3.20;;;6.70;99.90;;;;;;5041284;28;20400;-62
2021/11/02 00:45:23;;;;;;;7.65;3.10;;;6.70;99.90;;;;;;5040526;28;20029;-63
2021/11/02 00:47:51;;;;;;;3.58;2.38;;;6.70;99.90;;;;;;5038438;28;20041;-62
2021/11/02 00:50:18;;;;;;;8.52;3.38;;;6.70;99.90;;;;;;5043270;28;20095;-62
2021/11/02 00:52:43;;;;;;;7.97;2.65;;;6.80;99.90;;;;;;5040525;28;20060;-63
2021/11/02 00:55:09;;;;;;;8.70;3.42;;;6.70;99.90;;;;;;5037834;28;20049;-61
2021/11/02 00:57:36;;;;;;;6.28;2.70;;;6.70;99.90;;;;;;5040623;28;20064;-61
2021/11/02 01:00:04;;;;;;;5.40;2.25;;;6.70;99.90;;;;;;5039013;28;20034;-61
2021/11/02 01:02:29;;;;;;;7.85;2.78;;;6.70;99.90;;;;;;5042359;28;20065;-61
2021/11/02 01:04:55;;;;;;;12.18;3.63;;;6.70;99.90;;;;;;5040219;28;20068;-62
2021/11/02 01:07:20;;;;;;;4.05;2.42;;;6.70;99.90;;;;;;5039213;28;20459;-61
2021/11/02 01:09:46;;;;;;;4.20;2.42;;;6.70;99.90;;;;;;5038642;28;20433;-64
2021/11/02 01:12:12;;;;;;;8.32;2.53;;;6.70;99.90;;;;;;5040697;28;20033;-61
2021/11/02 01:14:39;;;;;;;14.25;3.33;;;6.70;99.90;;;;;;5037627;28;20033;-61
2021/11/02 01:17:05;;;;;;;5.50;2.65;;;6.60;99.90;;;;;;5022918;28;20041;-61
2021/11/02 01:19:30;;;;;;;8.00;2.40;;;6.70;99.90;;;;;;5037264;28;20030;-63
2021/11/02 01:21:57;;;;;;;7.88;3.03;;;6.70;99.90;;;;;;5039719;28;20072;-61
2021/11/02 01:24:22;;;;;;;7.18;2.90;;;6.70;99.90;;;;;;5041159;28;20113;-62
2021/11/02 01:26:48;;;;;;;4.75;2.35;;;6.60;99.90;;;;;;5039085;28;20133;-61
2021/11/02 01:29:15;;;;;;;11.43;3.05;;;6.60;99.90;;;;;;5037559;28;20041;-63
2021/11/02 01:31:43;;;;;;;5.60;2.92;;;6.60;99.90;;;;;;5037089;28;20468;-61
2021/11/02 01:34:08;;;;;;;5.05;2.40;;;6.60;99.90;;;;;;5022189;28;20021;-61
2021/11/02 01:36:34;;;;;;;4.75;2.58;;;6.70;99.90;;;;;;5019088;28;20044;-61
2021/11/02 01:39:01;;;;;;;6.60;2.47;;;6.60;99.90;;;;;;5021870;28;20484;-61
2021/11/02 01:41:28;;;;;;;7.50;3.67;;;6.60;99.90;;;;;;5037434;28;20029;-61
2021/11/02 01:43:58;;;;;;;5.60;2.47;;;6.70;99.90;;;;;;5039368;28;20037;-61
2021/11/02 01:46:27;;;;;;;4.20;2.35;;;6.60;99.90;;;;;;5037753;28;20108;-61
2021/11/02 01:48:55;;;;;;;7.25;2.90;;;6.70;99.90;;;;;;5022774;28;20427;-61
2021/11/02 01:51:25;;;;;;;4.18;2.20;;;6.70;99.90;;;;;;5042355;28;20043;-60
2021/11/02 01:53:52;;;;;;;5.40;2.55;;;6.60;99.90;;;;;;5038984;28;20120;-63
2021/11/02 01:56:18;;;;;;;6.95;3.60;;;6.60;99.90;;;;;;5038229;28;20119;-62
2021/11/02 01:58:47;;;;;;;7.95;3.65;;;6.60;99.90;;;;;;5038072;28;20037;-62
2021/11/02 02:01:21;;;;;;;5.40;3.28;;;6.60;99.90;;;;;;5040241;28;20033;-61
2021/11/02 02:04:00;;;;;;;5.43;2.30;;;6.60;99.90;;;;;;5038219;28;20098;-61
2021/11/02 02:06:42;;;;;;;4.57;2.25;;;6.60;99.90;;;;;;5022293;28;20029;-60
2021/11/02 02:09:15;;;;;;;5.85;2.70;;;6.60;99.90;;;;;;5023545;28;20619;-60
2021/11/02 02:12:05;;;;;;;6.43;2.50;;;6.60;99.90;;;;;;5022671;28;20038;-62
2021/11/02 02:14:55;;;;;;;5.53;2.53;;;6.60;99.90;;;;;;5036752;28;20021;-61
2021/11/02 02:17:28;;;;;;;4.80;2.53;;;6.50;99.90;;;;;;5043350;28;20539;-63
2021/11/02 02:20:29;;;;;;;9.95;3.10;;;6.50;99.90;;;;;;5036980;28;20057;-60
2021/11/02 02:23:33;;;;;;;9.30;2.97;;;6.50;99.90;;;;;;5016064;28;20032;-61
2021/11/02 02:26:34;;;;;;;5.43;2.90;;;6.60;99.90;;;;;;5040088;28;20113;-61
2021/11/02 02:29:03;;;;;;;4.90;2.80;;;6.50;99.90;;;;;;4975271;28;20029;-61
2021/11/02 02:31:32;;;;;;;9.52;2.92;;;6.50;99.90;;;;;;5040152;28;20029;-61
2021/11/02 02:33:59;;;;;;;4.80;2.50;;;6.50;99.90;;;;;;5039933;28;20037;-64
2021/11/02 02:36:26;;;;;;;6.05;3.05;;;6.50;99.90;;;;;;5037207;28;20037;-63
2021/11/02 02:38:54;;;;;;;5.30;2.65;;;6.50;99.90;;;;;;5036167;28;20424;-62
2021/11/02 02:41:23;;;;;;;6.10;2.80;;;6.50;99.90;;;;;;5020884;28;20053;-62
2021/11/02 02:43:50;;;;;;;8.55;2.78;;;6.40;99.90;;;;;;5037318;28;20034;-62
2021/11/02 02:46:16;;;;;;;6.53;2.97;;;6.40;99.90;;;;;;5038637;28;20113;-61
2021/11/02 02:48:43;;;;;;;7.88;3.05;;;6.50;99.90;;;;;;5043138;28;20037;-61
2021/11/02 02:51:14;;;;;;;6.40;2.80;;;6.40;99.90;;;;;;5041302;28;20030;-64
2021/11/02 02:53:42;;;;;;;9.40;2.83;;;6.40;99.90;;;;;;5040220;28;20032;-66
2021/11/02 02:56:09;;;;;;;5.53;2.60;;;6.40;99.90;;;;;;5038957;28;20112;-61
2021/11/02 02:58:38;;;;;;;8.73;3.63;;;6.40;99.90;;;;;;5040455;28;20136;-62
2021/11/02 03:01:07;;;;;;;14.48;3.50;;;6.40;99.90;;;;;;5020345;28;20513;-61
2021/11/02 03:03:35;;;;;;;10.98;3.88;;;6.40;99.90;;;;;;5036719;28;20156;-62
2021/11/02 03:06:03;;;;;;;9.15;3.92;;;6.30;99.90;;;;;;5040542;28;20397;-63
2021/11/02 03:08:29;;;;;;;11.07;3.42;;;6.40;99.90;;;;;;5025406;28;20120;-61
2021/11/02 03:10:56;;;;;;;9.48;4.05;;;6.40;99.90;;;;;;5025753;28;20045;-62
2021/11/02 03:13:24;;;;;;;9.75;3.45;;;6.40;99.90;;;;;;5043766;28;20041;-62
2021/11/02 03:15:59;;;;;;;10.02;3.85;;;6.40;99.90;;;;;;5027165;28;20057;-61
2021/11/02 03:56:59;;;;;;;13.45;4.30;;;6.30;99.90;;;;;;5042556;28;20087;-60
2021/11/02 05:47:07;;;;;;;5.43;2.00;;;6.30;99.90;;;;;;5037242;28;20045;-61
2021/11/02 05:57:15;;;;;;;5.05;2.03;;;6.50;99.90;;;;;;5039396;28;20037;-62
2021/11/02 05:59:44;;;;;;;9.07;2.17;;;6.50;99.90;;;;;;5040762;28;20033;-60
2021/11/02 06:04:57;;;;;;;5.80;2.33;;;6.60;99.90;;;;;;5035735;28;20068;-60
2021/11/02 06:07:38;;;;;;;8.30;2.70;;;6.60;99.90;;;;;;5027156;28;20457;-60
2021/11/02 06:30:02;;;;;;;6.40;2.15;;;6.80;99.90;;;;;;5039549;28;20071;-60
2021/11/02 06:32:30;;;;;;;5.55;2.28;;;6.90;99.90;;;;;;5037037;28;20152;-62
2021/11/02 06:41:45;;;;;;;4.65;2.40;;;6.90;99.90;;;;;;5035918;28;20045;-62
2021/11/02 06:43:16;;;;;;;6.47;2.42;;;6.90;99.90;;;;;;5030710;28;20076;-62
2021/11/02 07:15:53;;;;;;;9.55;2.90;;;7.20;99.90;;;;;;5036771;28;20090;-64
2021/11/02 07:18:22;;;;;;;6.57;2.80;;;7.20;99.90;;;;;;5022590;28;20026;-63
2021/11/02 07:20:56;;;;;;;20.25;3.47;;;7.20;99.90;;;;;;5040381;28;20052;-63
2021/11/02 07:23:30;;;;;;;8.95;2.80;;;7.30;99.90;;;;;;5037778;28;20040;-62
2021/11/02 07:26:08;;;;;;;7.80;3.10;;;7.30;99.90;;;;;;5022280;28;20124;-63
2021/11/02 07:29:17;;;;;;;9.18;3.08;;;7.30;99.90;;;;;;5038730;28;20061;-63
2021/11/02 08:47:01;;;;;;;12.68;4.05;;;7.90;99.90;;;;;;5034836;28;20432;-62
2021/11/02 08:49:27;;;;;;;9.52;4.55;;;7.90;99.90;;;;;;5035010;28;20041;-62
2021/11/02 08:51:58;;;;;;;9.57;4.50;;;7.90;99.90;;;;;;5019677;28;20455;-63
2021/11/02 08:54:25;;;;;;;10.68;4.10;;;7.90;99.90;;;;;;5039422;28;20029;-63
2021/11/02 08:56:53;;;;;;;13.95;5.00;;;7.90;99.90;;;;;;5039555;28;20686;-63
2021/11/02 08:59:19;;;;;;;9.80;4.40;;;7.90;99.90;;;;;;5038685;28;20117;-61
2021/11/02 09:01:53;;;;;;;14.98;5.95;;;7.90;99.90;;;;;;5036521;28;20121;-64
2021/11/02 09:04:19;;;;;;;10.80;4.78;;;8.00;99.90;;;;;;5038782;28;20590;-62
2021/11/02 09:06:50;;;;;;;11.10;5.32;;;8.00;99.90;;;;;;5019069;28;20029;-62
2021/11/02 09:09:18;;;;;;;10.32;5.30;;;8.00;99.90;;;;;;5031708;28;20029;-63
2021/11/02 09:11:45;;;;;;;11.63;5.32;;;8.00;99.90;;;;;;5024193;28;20110;-64
2021/11/02 09:14:15;;;;;;;12.02;6.28;;;8.00;99.90;;;;;;5032119;28;20068;-62
2021/11/02 09:16:46;;;;;;;14.57;6.30;;;8.00;99.90;;;;;;5031897;28;20399;-62
2021/11/02 09:19:12;;;;;;;;;;;8.10;99.90;;;;;;5037618;28;20040;-63
2021/11/02 09:21:38;;;;;;;10.82;5.28;;;8.10;99.90;;;;;;5036164;28;19913;-64
2021/11/02 09:24:04;;;;;;;12.27;6.30;;;8.10;99.90;;;;;;5036934;28;20075;-62
2021/11/02 09:26:31;;;;;;;10.25;5.93;;;8.10;99.90;;;;;;5021387;28;20057;-62
2021/11/02 09:29:02;;;;;;;13.55;5.45;;;8.10;99.90;;;;;;5019774;28;20192;-62
2021/11/02 09:31:31;;;;;;;15.95;6.03;;;8.10;99.90;;;;;;5039524;28;20040;-64
2021/11/02 09:33:58;;;;;;;14.13;5.72;;;8.10;99.90;;;;;;5036992;28;20503;-63
2021/11/02 09:36:27;;;;;;;12.57;6.03;;;8.20;99.90;;;;;;5035332;28;20180;-63
2021/11/02 09:39:13;;;;;;;12.52;5.78;;;8.20;99.90;;;;;;5036588;28;20048;-62
2021/11/02 09:42:15;;;;;;;12.23;6.15;;;8.30;99.90;;;;;;5033913;28;20036;-62
2021/11/02 09:44:51;;;;;;;14.52;6.38;;;8.30;99.90;;;;;;5017730;28;20544;-62
2021/11/02 09:47:52;;;;;;;16.42;6.38;;;8.30;99.90;;;;;;5024661;28;20095;-62
2021/11/02 09:50:26;;;;;;;14.05;6.82;;;8.30;99.90;;;;;;5033954;28;20052;-62
2021/11/02 09:53:07;;;;;;;17.52;6.85;;;8.40;99.90;;;;;;5035300;28;20767;-62
2021/11/02 09:55:53;;;;;;;12.23;5.32;;;8.40;99.90;;;;;;5029595;28;20040;-62
2021/11/02 09:58:48;;;;;;;11.88;6.38;;;8.40;99.90;;;;;;5035472;28;20463;-63
2021/11/02 10:01:37;;;;;;;18.23;6.63;;;8.40;99.90;;;;;;5037132;28;20051;-62
2021/11/02 10:04:36;;;;;;;15.73;7.30;;;8.50;99.90;;;;;;5043646;28;21312;-62
2021/11/02 10:07:16;;;;;;;14.30;6.37;;;8.50;99.90;;;;;;5032944;28;20036;-62
2021/11/02 10:09:54;;;;;;;13.35;5.85;;;8.50;99.90;;;;;;5019815;28;20036;-62
2021/11/02 10:12:23;;;;;;;13.25;7.22;;;8.50;99.90;;;;;;5036270;28;20042;-63
2021/11/02 10:15:34;;;;;;;12.98;6.63;;;8.60;99.90;;;;;;5035724;28;20033;-62
2021/11/02 10:18:05;;;;;;;12.80;6.32;;;8.70;99.90;;;;;;4943936;28;20042;-62
2021/11/02 10:20:34;;;;;;;13.85;6.78;;;8.70;99.90;;;;;;4943811;28;20039;-64
2021/11/02 10:23:28;;;;;;;12.57;6.90;;;8.70;99.90;;;;;;4998110;28;20187;-60
2021/11/02 10:26:27;;;;;;;12.38;6.80;;;8.70;99.90;;;;;;5031960;28;20041;-64
2021/11/02 10:29:25;;;;;;;16.38;7.40;;;8.80;99.90;;;;;;5035779;28;20095;-62
2021/11/02 10:32:05;;;;;;;15.35;6.95;;;8.80;99.90;;;;;;5034415;28;20060;-62
2021/11/02 10:34:44;;;;;;;14.40;7.07;;;8.80;99.90;;;;;;5036514;28;20090;-64
2021/11/02 10:37:31;;;;;;;14.52;7.00;;;8.80;99.90;;;;;;5036236;28;20408;-63
2021/11/02 10:40:07;;;;;;;13.15;7.05;;;8.90;99.90;;;;;;5033083;28;20119;-62
2021/11/02 10:43:10;;;;;;;16.25;6.55;;;8.90;99.90;;;;;;5044443;28;20124;-63
2021/11/02 10:45:42;;;;;;;14.95;6.80;;;8.90;99.90;;;;;;4916342;29;20032;-62
2021/11/02 10:48:11;;;;;;;15.43;6.47;;;8.90;99.90;;;;;;5019003;28;20113;-62
2021/11/02 10:50:44;;;;;;;11.20;6.25;;;9.00;99.90;;;;;;5030630;28;20101;-62
2021/11/02 10:53:11;;;;;;;11.93;6.05;;;9.00;99.90;;;;;;5022077;28;20029;-61
2021/11/02 10:55:39;;;;;;;13.52;7.38;;;9.00;99.90;;;;;;5036079;28;20033;-62
2021/11/02 10:58:26;;;;;;;12.77;6.50;;;9.10;99.90;;;;;;5015487;28;20037;-64
2021/11/02 11:00:52;;;;;;;15.25;6.00;;;9.10;99.90;;;;;;5038263;28;20564;-62
2021/11/02 11:03:21;;;;;;;10.73;6.07;;;9.20;99.90;;;;;;5033372;28;20120;-63
2021/11/02 11:05:55;;;;;;;23.90;8.35;;;9.20;99.90;;;;;;5017806;28;20041;-63
2021/11/02 11:08:26;;;;;;;17.90;6.50;;;9.20;99.90;;;;;;5032177;28;20037;-63
2021/11/02 11:10:55;;;;;;;16.02;6.30;;;9.20;99.90;;;;;;5035957;28;20042;-62
2021/11/02 11:13:28;;;;;;;13.68;5.50;;;9.20;99.90;;;;;;5029568;28;20036;-64
2021/11/02 11:16:26;;;;;;;11.50;5.70;;;9.20;99.90;;;;;;5027349;28;20060;-62
2021/11/02 11:18:58;;;;;;;13.10;5.85;;;9.20;99.90;;;;;;5028437;28;20045;-63
2021/11/02 11:21:26;;;;;;;11.35;5.78;;;9.20;99.90;;;;;;5035878;28;20041;-61
2021/11/02 11:23:56;;;;;;;13.38;6.07;;;9.10;99.90;;;;;;5030324;28;20033;-62
2021/11/02 11:26:25;;;;;;;13.27;5.43;;;9.20;99.90;;;;;;5022429;28;20595;-62
2021/11/02 11:28:53;;;;;;;10.48;5.10;;;9.30;99.90;;;;;;5039145;28;20033;-64
2021/11/02 11:31:21;;;;;;;10.85;5.28;;;9.20;99.90;;;;;;5046685;28;20045;-64
2021/11/02 11:33:55;;;;;;;10.75;5.68;;;9.20;99.90;;;;;;5030810;28;20044;-64
2021/11/02 11:36:25;;;;;;;11.00;5.57;;;9.20;99.90;;;;;;5026370;28;20041;-63
2021/11/02 11:38:56;;;;;;;11.05;5.70;;;9.40;99.90;;;;;;5041372;28;20028;-63
2021/11/02 11:41:25;;;;;;;13.82;5.97;;;9.50;99.90;;;;;;5038792;28;20131;-63
2021/11/02 11:43:52;;;;;;;12.43;5.18;;;9.50;99.90;;;;;;5032376;28;20409;-62
2021/11/02 11:46:18;;;;;;;21.65;5.50;;;9.60;99.90;;;;;;5041488;28;20112;-63
2021/11/02 11:48:53;;;;;;;12.30;6.15;;;9.50;99.90;;;;;;5025172;28;20457;-62
2021/11/02 11:51:25;;;;;;;16.98;5.97;;;9.50;99.90;;;;;;5039596;28;20871;-63
2021/11/02 11:54:03;;;;;;;10.88;4.82;;;9.60;99.90;;;;;;5039868;28;20038;-64
2021/11/02 11:56:36;;;;;;;10.20;5.22;;;9.60;99.90;;;;;;5042606;28;20033;-63
2021/11/02 11:59:02;;;;;;;13.85;5.18;;;9.60;99.90;;;;;;5038848;28;20033;-63
2021/11/02 12:01:55;;;;;;;10.98;5.13;;;9.70;99.90;;;;;;5037706;28;20029;-61
2021/11/02 12:04:45;;;;;;;14.18;5.53;;;9.80;99.90;;;;;;5037374;28;20045;-62
2021/11/02 12:07:30;;;;;;;7.90;4.70;;;9.70;99.90;;;;;;5042104;28;20099;-62
2021/11/02 12:10:05;;;;;;;12.63;5.45;;;9.80;99.90;;;;;;5035885;28;20037;-63
2021/11/02 12:12:33;;;;;;;9.38;4.38;;;9.80;99.90;;;;;;5024267;28;20041;-61
2021/11/02 12:15:01;;;;;;;9.18;4.85;;;9.80;99.90;;;;;;5032098;28;20120;-62
2021/11/02 12:17:30;;;;;;;9.98;5.15;;;9.70;99.90;;;;;;5038663;28;20025;-62
2021/11/02 12:20:04;;;;;;;8.45;4.80;;;9.80;99.90;;;;;;5034978;28;20433;-63
2021/11/02 12:22:39;;;;;;;11.90;5.35;;;9.80;99.90;;;;;;5038242;28;20132;-62
2021/11/02 12:25:08;;;;;;;9.52;4.88;;;9.80;99.90;;;;;;5036586;28;20045;-62
2021/11/02 12:27:44;;;;;;;8.60;4.70;;;9.90;99.90;;;;;;5020767;28;20030;-62
2021/11/02 12:30:13;;;;;;;9.00;5.10;;;9.80;99.90;;;;;;5023750;28;20034;-62
2021/11/02 12:32:50;;;;;;;10.48;5.88;;;9.80;99.90;;;;;;5036316;28;20187;-63
2021/11/02 12:35:35;;;;;;;8.15;4.57;;;9.80;99.90;;;;;;5040722;28;20061;-62
2021/11/02 12:38:04;;;;;;;11.32;5.28;;;9.80;99.90;;;;;;5037879;28;20520;-62
2021/11/02 12:40:45;;;;;;;11.23;5.30;;;9.70;99.90;;;;;;5035555;28;20048;-62
2021/11/02 12:43:28;;;;;;;6.18;4.10;;;9.70;99.90;;;;;;5034727;28;20033;-62
2021/11/02 12:45:57;;;;;;;8.73;4.65;;;9.70;99.90;;;;;;5047225;28;20389;-63
2021/11/02 12:48:24;;;;;;;8.57;5.15;;;9.70;99.90;;;;;;5034550;28;20045;-62
2021/11/02 12:50:51;;;;;;;13.95;4.53;;;9.60;99.90;;;;;;5037808;28;20040;-64
2021/11/02 12:53:18;;;;;;;7.00;4.20;;;9.70;99.90;;;;;;5038157;28;20037;-62
2021/11/02 12:55:45;;;;;;;6.32;3.70;;;9.60;99.90;;;;;;5031735;28;20125;-64
2021/11/02 12:58:11;;;;;;;6.15;3.50;;;9.60;99.90;;;;;;5016766;28;20037;-61
2021/11/02 13:00:44;;;;;;;5.50;3.50;;;9.70;99.90;;;;;;5022984;28;20048;-62
2021/11/02 13:03:17;;;;;;;11.10;3.60;;;9.70;99.90;;;;;;5020914;28;20045;-61
2021/11/02 13:05:55;;;;;;;4.22;2.72;;;9.70;99.90;;;;;;5034996;28;20037;-63
2021/11/02 13:08:47;;;;;;;4.22;2.25;;;9.70;99.90;;;;;;5042591;28;20049;-64
2021/11/02 13:11:18;;;;;;;4.68;2.17;;;9.70;99.90;;;;;;5025192;28;20044;-61
2021/11/02 13:14:15;;;;;;;3.28;2.10;;;9.60;99.90;;;;;;5034309;28;20033;-62
2021/11/02 13:16:59;;;;;;;7.13;3.17;;;9.60;99.90;;;;;;5017830;28;20041;-62
2021/11/02 13:19:40;;;;;;;3.80;2.17;;;9.70;99.90;;;;;;5032708;28;20528;-60
2021/11/02 13:22:23;;;;;;;4.15;2.38;;;9.70;99.90;;;;;;5022885;28;20122;-62
2021/11/02 13:25:04;;;;;;;5.90;2.78;;;9.80;99.90;;;;;;5037774;28;20437;-62
2021/11/02 13:27:30;;;;;;;;;;;9.90;99.90;;;;;;5037504;28;20110;-62
2021/11/02 13:29:55;;;;;;;3.30;2.20;;;9.90;99.90;;;;;;5032381;28;20361;-62
2021/11/02 13:32:21;;;;;;;3.60;2.65;;;10.00;99.90;;;;;;5035526;28;20500;-60
2021/11/02 13:34:47;;;;;;;4.88;2.58;;;10.10;99.90;;;;;;5020138;28;20036;-61
2021/11/02 13:37:18;;;;;;;3.90;2.50;;;10.10;99.90;;;;;;5034600;28;20041;-63
2021/11/02 13:39:57;;;;;;;3.38;1.80;;;10.10;99.90;;;;;;5033376;28;20405;-63
2021/11/02 13:42:49;;;;;;;3.50;2.20;;;10.10;99.90;;;;;;5037503;28;20047;-60
2021/11/02 13:45:20;;;;;;;4.32;3.05;;;10.10;99.90;;;;;;5035044;28;20059;-61
2021/11/02 13:47:46;;;;;;;4.75;2.88;;;10.10;99.90;;;;;;5037336;28;20496;-60
2021/11/02 13:50:12;;;;;;;4.30;2.65;;;10.20;99.90;;;;;;5036266;28;20060;-63
2021/11/02 13:52:41;;;;;;;3.22;2.15;;;10.20;99.90;;;;;;5030972;28;20048;-64
2021/11/02 13:55:08;;;;;;;7.82;2.35;;;10.20;99.90;;;;;;5034043;28;20037;-62
2021/11/02 13:57:34;;;;;;;3.58;2.05;;;10.30;99.90;;;;;;5036036;28;20063;-62
2021/11/02 14:00:00;;;;;;;3.28;1.52;;;10.30;99.90;;;;;;5031900;28;20385;-63
2021/11/02 14:02:27;;;;;;;3.75;2.47;;;10.20;99.90;;;;;;5031532;28;20036;-60
2021/11/02 14:04:54;;;;;;;3.03;1.58;;;10.10;99.90;;;;;;5034352;28;20086;-69
2021/11/02 14:07:25;;;;;;;3.75;1.67;;;10.00;99.90;;;;;;5037057;28;20041;-62
2021/11/02 14:09:55;;;;;;;2.33;1.40;;;9.90;99.90;;;;;;5033517;28;20399;-62
2021/11/02 14:12:27;;;;;;;2.55;1.63;;;9.90;99.90;;;;;;5019231;28;20036;-62
2021/11/02 14:15:16;;;;;;;3.17;1.63;;;9.90;99.90;;;;;;5032626;28;20043;-61
2021/11/02 14:17:44;;;;;;;2.60;1.60;;;9.90;99.90;;;;;;5023510;28;20099;-61
2021/11/02 14:20:33;;;;;;;3.70;1.65;;;9.90;99.90;;;;;;5032971;28;20022;-62
2021/11/02 14:23:00;;;;;;;4.43;2.20;;;9.90;99.90;;;;;;5007472;28;20511;-65
2021/11/02 14:25:39;;;;;;;3.35;2.03;;;9.90;99.90;;;;;;5031586;28;20112;-62
2021/11/02 14:28:06;;;;;;;3.63;1.95;;;9.80;99.90;;;;;;5033999;28;20080;-63
2021/11/02 14:30:32;;;;;;;4.00;1.98;;;9.80;99.90;;;;;;5022428;28;20041;-61
2021/11/02 14:32:57;;;;;;;3.38;1.75;;;9.80;99.90;;;;;;5030536;28;20494;-62
2021/11/02 14:35:38;;;;;;;5.47;1.67;;;9.80;99.90;;;;;;5036889;28;20091;-61
2021/11/02 14:38:10;;;;;;;3.95;2.17;;;9.70;99.90;;;;;;5035419;28;20578;-61
2021/11/02 14:40:38;;;;;;;3.60;2.08;;;9.60;99.90;;;;;;5033464;28;20033;-64
2021/11/02 14:43:13;;;;;;;4.05;2.38;;;9.60;99.90;;;;;;5034246;28;20029;-62
2021/11/02 14:46:08;;;;;;;5.15;2.20;;;9.60;99.90;;;;;;5032434;28;20061;-61
2021/11/02 14:48:47;;;;;;;9.27;2.63;;;9.60;99.90;;;;;;4990008;28;1065196;-62
2021/11/02 14:51:21;;;;;;;3.22;2.17;;;9.50;99.90;;;;;;5034326;28;20040;-62
2021/11/02 14:53:47;;;;;;;4.47;2.30;;;9.60;99.90;;;;;;5034463;28;20473;-59
2021/11/02 14:56:17;;;;;;;3.28;2.15;;;9.60;99.90;;;;;;5042689;28;20358;-63
2021/11/02 14:58:46;;;;;;;5.95;2.30;;;9.60;99.90;;;;;;5031492;28;20431;-64
2021/11/02 15:01:15;;;;;;;3.55;2.20;;;9.50;99.90;;;;;;5031664;28;20396;-61
2021/11/02 15:03:58;;;;;;;3.72;2.63;;;9.60;99.90;;;;;;5036001;28;20132;-62
2021/11/02 15:06:42;;;;;;;4.68;3.13;;;9.60;99.90;;;;;;5039373;28;20030;-61
2021/11/02 15:09:17;;;;;;;6.32;3.30;;;9.60;99.90;;;;;;5024512;28;20075;-62
2021/11/02 15:11:44;;;;;;;6.97;3.67;;;9.60;99.90;;;;;;5035510;28;20040;-61
2021/11/02 15:14:15;;;;;;;6.85;2.67;;;9.60;99.90;;;;;;5040513;28;20047;-64
2021/11/02 15:16:46;;;;;;;6.18;2.53;;;9.50;99.90;;;;;;5039087;28;20036;-61
2021/11/02 15:19:13;;;;;;;3.13;1.55;;;9.50;99.90;;;;;;5027609;28;20037;-62
2021/11/02 15:21:41;;;;;;;3.42;1.70;;;9.50;99.90;;;;;;5032485;28;20044;-63
2021/11/02 15:24:27;;;;;;;2.60;1.40;;;9.50;99.90;;;;;;5040450;28;20061;-62
2021/11/02 15:27:13;;;;;;;3.03;1.17;;;9.50;99.90;;;;;;5042195;28;20056;-63
2021/11/02 15:29:42;;;;;;;2.15;1.20;;;9.50;99.90;;;;;;5042212;28;20457;-62
2021/11/02 15:32:18;;;;;;;1.35;0.80;;;9.40;99.90;;;;;;5021759;28;20044;-62
2021/11/02 15:34:43;;;;;;;1.40;0.68;;;9.30;99.90;;;;;;5039483;28;20466;-62
2021/11/02 15:37:15;;;;;;;1.65;0.90;;;9.30;99.90;;;;;;5025513;28;20041;-63
2021/11/02 15:39:42;;;;;;;4.43;0.98;;;9.20;99.90;;;;;;5041372;28;20032;-62
2021/11/02 15:42:44;;;;;;;1.10;0.40;;;9.10;99.90;;;;;;5039216;28;20106;-61
2021/11/02 15:45:12;;;;;;;1.30;0.50;;;9.10;99.90;;;;;;4985398;28;20511;-60
2021/11/02 15:47:42;;;;;;;1.92;0.47;;;9.10;99.90;;;;;;5041495;28;20048;-62
2021/11/02 15:50:14;;;;;;;1.58;0.52;;;9.10;99.90;;;;;;5025247;28;20128;-61
2021/11/02 15:52:40;;;;;;;1.15;0.45;;;9.10;99.90;;;;;;5037663;28;20037;-61
2021/11/02 15:55:13;;;;;;;1.27;0.60;;;9.00;99.90;;;;;;5037983;28;20047;-62
2021/11/02 15:57:41;;;;;;;1.67;1.10;;;9.00;99.90;;;;;;5039361;28;20057;-64
2021/11/02 16:00:09;;;;;;;1.00;0.30;;;9.00;99.90;;;;;;5038712;28;20037;-62
2021/11/02 16:02:40;;;;;;;2.25;0.50;;;9.00;99.90;;;;;;5041328;28;20033;-64
2021/11/02 16:05:08;;;;;;;3.53;0.50;;;9.00;99.90;;;;;;5022659;28;20246;-62
2021/11/02 16:07:34;;;;;;;1.85;0.52;;;9.00;99.90;;;;;;5037492;28;20041;-63
2021/11/02 16:10:00;;;;;;;0.88;0.38;;;9.00;99.90;;;;;;5039976;28;20048;-62
2021/11/02 16:12:35;;;;;;;1.55;0.38;;;9.00;99.90;;;;;;5042837;28;20033;-64
2021/11/02 16:15:07;;;;;;;1.80;0.40;;;9.00;99.90;;;;;;5039563;28;20033;-62
2021/11/02 16:17:38;;;;;;;2.78;0.50;;;9.00;99.90;;;;;;5022187;28;20187;-61
2021/11/02 16:20:05;;;;;;;2.72;0.50;;;9.00;99.90;;;;;;5029627;28;20036;-61
2021/11/02 16:22:44;;;;;;;6.60;0.55;;;9.10;99.90;;;;;;5039729;28;20557;-64
2021/11/02 16:25:10;;;;;;;1.65;0.40;;;9.10;99.90;;;;;;5040017;28;20034;-61
2021/11/02 16:27:38;;;;;;;1.42;0.52;;;9.10;99.90;;;;;;5041586;28;20049;-61
2021/11/02 16:30:19;;;;;;;1.75;0.50;;;9.00;99.90;;;;;;5041255;28;20048;-62
2021/11/02 16:32:48;;;;;;;2.65;0.57;;;9.00;99.90;;;;;;5024392;28;20029;-62
2021/11/02 16:35:37;;;;;;;1.95;0.32;;;9.00;99.90;;;;;;5023852;28;20159;-63
2021/11/02 16:38:32;;;;;;;2.17;0.40;;;9.00;99.90;;;;;;5041927;28;20523;-60
2021/11/02 16:41:04;;;;;;;2.33;0.50;;;8.90;99.90;;;;;;5041895;28;20256;-62
2021/11/02 16:43:35;;;;;;;0.38;0.20;;;8.90;99.90;;;;;;5040846;28;20064;-62
2021/11/02 16:46:06;;;;;;;0.85;0.28;;;8.90;99.90;;;;;;5037415;28;20377;-62
2021/11/02 16:48:39;;;;;;;1.45;0.40;;;8.80;99.90;;;;;;5040880;28;20041;-61
2021/11/02 16:51:05;;;;;;;5.72;0.70;;;8.80;99.90;;;;;;5042548;28;20038;-61
2021/11/02 16:53:31;;;;;;;2.10;0.60;;;8.80;99.90;;;;;;5040724;28;20052;-61
2021/11/02 16:56:07;;;;;;;0.63;0.32;;;8.80;99.90;;;;;;5039018;28;20033;-63
2021/11/02 16:58:34;;;;;;;1.23;0.30;;;8.80;99.90;;;;;;5041029;28;20044;-61
2021/11/02 17:01:18;;;;;;;1.15;0.30;;;8.80;99.90;;;;;;5038514;28;20099;-63
2021/11/02 17:03:45;;;;;;;1.38;0.30;;;8.90;99.90;;;;;;5040781;28;20516;-61
2021/11/02 17:06:20;;;;;;;2.55;0.57;;;8.90;99.90;;;;;;5020243;28;20049;-63
2021/11/02 17:09:01;;;;;;;3.55;0.50;;;8.80;99.90;;;;;;5041400;28;20549;-63
2021/11/02 17:11:27;;;;;;;2.92;0.38;;;8.90;99.90;;;;;;5039919;28;20489;-63
2021/11/02 17:13:54;;;;;;;1.55;0.40;;;8.90;99.90;;;;;;5039391;28;20025;-63
2021/11/02 17:16:27;;;;;;;1.15;0.47;;;8.80;99.90;;;;;;5020904;28;20048;-62
2021/11/02 17:19:00;;;;;;;1.73;0.65;;;8.80;99.90;;;;;;5040864;28;20047;-62
2021/11/02 17:21:28;;;;;;;2.03;0.68;;;8.80;99.90;;;;;;5040223;28;20040;-62
2021/11/02 17:23:54;;;;;;;3.50;0.52;;;8.70;99.90;;;;;;5041473;28;20036;-61
2021/11/02 17:26:22;;;;;;;0.68;0.52;;;8.70;99.90;;;;;;5022764;28;20116;-62
2021/11/02 17:28:50;;;;;;;1.85;0.63;;;8.60;99.90;;;;;;5037569;28;20429;-64
2021/11/02 17:31:19;;;;;;;1.65;0.50;;;8.60;99.90;;;;;;5022165;28;20052;-61
2021/11/02 17:33:45;;;;;;;4.40;0.95;;;8.60;99.90;;;;;;5037356;28;20026;-63
2021/11/02 17:36:16;;;;;;;2.60;0.80;;;8.60;99.90;;;;;;5022779;28;20033;-61
2021/11/02 17:38:44;;;;;;;2.42;0.80;;;8.60;99.90;;;;;;5051883;28;20060;-61
2021/11/02 17:41:11;;;;;;;1.58;0.60;;;8.60;99.90;;;;;;5021754;28;20029;-63
2021/11/02 17:43:37;;;;;;;4.13;0.80;;;8.50;99.90;;;;;;5041585;28;20045;-62
2021/11/02 17:46:05;;;;;;;3.63;1.27;;;8.60;99.90;;;;;;5039412;28;20029;-62
2021/11/02 17:48:31;;;;;;;0.45;0.13;;;8.60;99.90;;;;;;5037415;28;20395;-63
2021/11/02 17:50:57;;;;;;;1.00;0.50;;;8.60;99.90;;;;;;5042477;28;20078;-62
2021/11/02 17:53:23;;;;;;;2.83;0.68;;;8.60;99.90;;;;;;5038994;28;20087;-61
2021/11/02 17:55:49;;;;;;;0.93;0.38;;;8.70;99.90;;;;;;5038240;28;20036;-62
2021/11/02 17:58:19;;;;;;;0.45;0.15;;;8.70;99.90;;;;;;5034465;28;20037;-61
2021/11/02 18:00:47;;;;;;;0.25;0.10;;;8.70;99.90;;;;;;5040738;28;20033;-62
2021/11/02 18:03:13;;;;;;;1.05;0.20;;;8.70;99.90;;;;;;5039401;28;20033;-62
2021/11/02 18:05:40;;;;;;;0.10;0.00;;;8.60;99.90;;;;;;5036846;28;20046;-62
2021/11/02 18:08:07;;;;;;;0.43;0.10;;;8.60;99.90;;;;;;5016468;28;20124;-61